createdAt,value
2019-03-31T00:01:55.395Z,16.50
2019-03-31T00:04:24.427Z,15.77
2019-03-31T00:07:44.225Z,18.83
2019-03-31T00:10:13.481Z,13.37
2019-03-31T00:13:08.999Z,18.30
2019-03-31T00:15:38.254Z,17.00
2019-03-31T00:18:07.746Z,17.87
2019-03-31T00:21:27.950Z,16.63
2019-03-31T00:23:59.637Z,17.07
2019-03-31T00:27:07.605Z,18.30
2019-03-31T00:29:36.598Z,21.70
2019-03-31T00:32:48.724Z,16.67
2019-03-31T00:35:18.226Z,15.67
2019-03-31T00:45:00.990Z,17.10
2019-03-31T00:47:29.940Z,17.87
2019-03-31T00:49:59.162Z,17.03
2019-03-31T00:56:06.840Z,17.00
2019-03-31T00:58:36.655Z,17.00
2019-03-31T01:01:52.516Z,15.37
2019-03-31T01:04:23.715Z,21.07
2019-03-31T01:07:46.734Z,14.90
2019-03-31T01:10:16.361Z,17.43
2019-03-31T01:12:45.617Z,16.00
2019-03-31T01:15:16.375Z,15.80
2019-03-31T01:17:45.601Z,18.93
2019-03-31T01:20:53.541Z,17.07
2019-03-31T01:23:22.469Z,20.97
2019-03-31T01:25:51.608Z,21.70
2019-03-31T01:28:57.459Z,17.30
2019-03-31T01:31:28.282Z,17.20
2019-03-31T01:33:57.177Z,16.87
2019-03-31T01:36:33.800Z,16.87
2019-03-31T01:39:03.100Z,14.83
2019-03-31T01:41:59.144Z,16.20
2019-03-31T01:44:28.015Z,15.23
2019-03-31T01:46:57.054Z,17.93
2019-03-31T01:56:48.043Z,17.07
2019-03-31T01:59:17.113Z,19.03
2019-03-31T02:01:46.535Z,15.00
2019-03-31T02:18:23.808Z,20.43
2019-03-31T02:20:53.031Z,15.60
2019-03-31T02:30:25.486Z,18.20
2019-03-31T02:32:54.592Z,18.13
2019-03-31T02:35:23.778Z,15.97
2019-03-31T02:44:56.467Z,18.30
2019-03-31T02:47:25.415Z,17.10
2019-03-31T02:49:54.296Z,20.07
2019-03-31T02:52:23.738Z,13.57
2019-03-31T02:54:52.761Z,16.73
2019-03-31T02:57:22.432Z,15.87
2019-03-31T02:59:52.179Z,15.67
2019-03-31T03:02:40.178Z,18.43
2019-03-31T03:04:54.172Z,17.03
2019-03-31T03:07:23.413Z,17.10
2019-03-31T03:09:53.152Z,18.23
2019-03-31T03:12:24.067Z,18.13
2019-03-31T03:15:00.553Z,16.27
2019-03-31T03:17:26.829Z,17.03
2019-03-31T03:19:55.951Z,14.33
2019-03-31T03:22:24.881Z,15.73
2019-03-31T03:24:53.829Z,12.30
2019-03-31T03:27:22.878Z,15.37
2019-03-31T03:29:52.523Z,16.70
2019-03-31T03:32:21.533Z,17.73
2019-03-31T03:34:53.069Z,15.00
2019-03-31T03:37:22.144Z,16.83
2019-03-31T03:39:54.319Z,15.27
2019-03-31T03:42:23.335Z,16.73
2019-03-31T03:44:52.369Z,16.10
2019-03-31T03:47:21.276Z,17.60
2019-03-31T03:49:50.209Z,14.40
2019-03-31T03:52:19.612Z,14.80
2019-03-31T03:54:53.107Z,18.87
2019-03-31T03:57:22.053Z,14.20
2019-03-31T03:59:51.067Z,17.37
2019-03-31T04:02:21.631Z,17.27
2019-03-31T04:04:53.763Z,13.90
2019-03-31T04:07:22.666Z,16.50
2019-03-31T04:09:51.609Z,15.90
2019-03-31T04:12:20.520Z,15.27
2019-03-31T04:14:49.681Z,14.90
2019-03-31T04:17:18.651Z,14.80
2019-03-31T04:19:47.886Z,18.03
2019-03-31T04:22:17.466Z,16.93
2019-03-31T04:24:47.801Z,15.87
2019-03-31T04:27:19.058Z,18.80
2019-03-31T04:29:47.405Z,14.83
2019-03-31T04:32:16.650Z,18.13
2019-03-31T04:34:45.619Z,15.80
2019-03-31T04:37:17.280Z,18.97
2019-03-31T04:39:49.432Z,17.47
2019-03-31T04:42:18.386Z,17.83
2019-03-31T04:44:48.044Z,16.50
2019-03-31T04:47:17.293Z,16.53
2019-03-31T04:49:46.273Z,18.13
2019-03-31T04:52:15.324Z,15.90
2019-03-31T04:54:44.800Z,16.00
2019-03-31T04:57:13.734Z,14.13
2019-03-31T04:59:42.712Z,17.23
2019-03-31T05:02:11.619Z,14.67
2019-03-31T05:04:40.803Z,18.63
2019-03-31T05:07:09.894Z,16.97
2019-03-31T05:09:39.537Z,16.40
2019-03-31T05:12:08.523Z,18.07
2019-03-31T05:14:37.965Z,16.80
2019-03-31T05:17:09.374Z,19.63
2019-03-31T05:19:38.321Z,14.47
2019-03-31T05:22:07.395Z,16.03
2019-03-31T05:24:36.429Z,17.87
2019-03-31T05:27:05.724Z,14.50
2019-03-31T05:29:35.749Z,19.17
2019-03-31T05:32:04.899Z,14.20
2019-03-31T05:34:33.802Z,13.57
2019-03-31T05:37:02.883Z,20.37
2019-03-31T05:39:32.067Z,15.53
2019-03-31T05:42:01.514Z,19.37
2019-03-31T05:44:30.587Z,16.43
2019-03-31T05:46:59.788Z,16.80
2019-03-31T05:49:28.692Z,16.13
2019-03-31T05:51:57.737Z,17.73
2019-03-31T05:54:27.223Z,17.53
2019-03-31T05:56:56.471Z,15.23
2019-03-31T05:59:25.387Z,14.47
2019-03-31T06:01:54.620Z,18.87
2019-03-31T06:04:33.079Z,15.73
2019-03-31T06:06:54.208Z,16.83
2019-03-31T06:09:24.614Z,14.97
2019-03-31T06:11:55.619Z,16.07
2019-03-31T06:14:25.000Z,18.37
2019-03-31T06:16:53.941Z,17.10
2019-03-31T06:19:24.280Z,14.10
2019-03-31T06:21:53.471Z,16.37
2019-03-31T06:24:22.620Z,16.07
2019-03-31T06:26:51.868Z,16.83
2019-03-31T06:29:25.663Z,16.27
2019-03-31T06:31:56.117Z,14.53
2019-03-31T06:34:28.605Z,17.30
2019-03-31T06:36:58.541Z,19.77
2019-03-31T06:39:34.120Z,15.83
2019-03-31T06:42:01.931Z,14.60
2019-03-31T06:44:30.884Z,16.47
2019-03-31T06:47:00.709Z,16.33
2019-03-31T06:49:32.437Z,15.83
2019-03-31T06:52:01.799Z,15.43
2019-03-31T06:54:33.785Z,15.57
2019-03-31T06:57:02.729Z,18.40
2019-03-31T06:59:31.815Z,18.87
2019-03-31T07:02:02.998Z,18.60
2019-03-31T07:04:31.962Z,24.53
2019-03-31T07:07:01.170Z,16.17
2019-03-31T07:09:30.232Z,19.70
2019-03-31T07:11:59.467Z,19.67
2019-03-31T07:14:38.547Z,21.47
2019-03-31T07:17:17.179Z,17.10
2019-03-31T07:19:46.331Z,18.33
2019-03-31T07:22:24.246Z,18.53
2019-03-31T07:24:52.304Z,16.07
2019-03-31T07:27:21.235Z,17.23
2019-03-31T07:29:51.893Z,23.20
2019-03-31T07:32:20.893Z,17.03
2019-03-31T07:34:50.279Z,22.17
2019-03-31T07:37:19.230Z,19.67
2019-03-31T07:39:48.242Z,18.73
2019-03-31T07:42:20.203Z,19.93
2019-03-31T07:44:49.304Z,19.47
2019-03-31T07:47:19.706Z,22.17
2019-03-31T07:49:48.986Z,20.03
2019-03-31T07:52:17.994Z,21.40
2019-03-31T07:54:49.943Z,21.27
2019-03-31T07:57:22.888Z,21.10
2019-03-31T07:59:51.950Z,22.53
2019-03-31T08:02:21.977Z,19.73
2019-03-31T08:04:51.283Z,23.47
2019-03-31T08:07:20.303Z,27.40
2019-03-31T08:09:49.703Z,30.47
2019-03-31T08:12:18.763Z,30.50
2019-03-31T08:14:52.166Z,28.43
2019-03-31T08:17:21.359Z,34.17
2019-03-31T08:19:50.334Z,32.50
2019-03-31T08:22:22.888Z,31.27
2019-03-31T08:24:53.951Z,33.27
2019-03-31T08:27:23.501Z,29.90
2019-03-31T08:30:00.717Z,34.60
2019-03-31T08:32:30.751Z,31.23
2019-03-31T08:35:02.780Z,34.13
2019-03-31T08:37:31.871Z,32.83
2019-03-31T08:40:01.184Z,31.27
2019-03-31T08:42:30.394Z,33.20
2019-03-31T08:45:04.160Z,34.40
2019-03-31T08:47:33.343Z,34.60
2019-03-31T08:50:05.437Z,34.77
2019-03-31T08:52:34.490Z,35.27
2019-03-31T08:55:04.401Z,32.13
2019-03-31T08:57:33.330Z,32.80
2019-03-31T09:00:02.813Z,37.10
2019-03-31T09:02:33.810Z,33.73
2019-03-31T09:05:03.109Z,35.43
2019-03-31T09:07:33.548Z,37.20
2019-03-31T09:10:04.001Z,34.47
2019-03-31T09:12:33.930Z,36.70
2019-03-31T09:15:04.282Z,38.13
2019-03-31T09:17:33.903Z,32.30
2019-03-31T09:20:02.880Z,31.57
2019-03-31T09:22:36.771Z,29.23
2019-03-31T09:25:12.200Z,31.10
2019-03-31T09:27:46.758Z,29.27
2019-03-31T09:30:18.713Z,30.17
2019-03-31T09:32:48.318Z,34.30
2019-03-31T09:35:36.813Z,29.97
2019-03-31T09:38:09.222Z,33.53
2019-03-31T09:40:39.895Z,38.70
2019-03-31T09:43:10.103Z,34.53
2019-03-31T09:45:39.935Z,36.37
2019-03-31T09:48:10.812Z,33.90
2019-03-31T09:50:39.451Z,38.20
2019-03-31T09:53:08.816Z,34.83
2019-03-31T09:55:38.051Z,40.03
2019-03-31T09:58:07.556Z,35.03
2019-03-31T10:00:48.232Z,32.43
2019-03-31T10:03:17.832Z,37.23
2019-03-31T10:05:50.502Z,38.67
2019-03-31T10:08:25.220Z,40.20
2019-03-31T10:11:02.627Z,39.77
2019-03-31T10:13:31.456Z,39.77
2019-03-31T10:16:01.392Z,42.57
2019-03-31T10:18:33.671Z,39.97
2019-03-31T10:21:12.390Z,46.73
2019-03-31T10:23:43.436Z,41.37
2019-03-31T10:26:16.131Z,46.67
2019-03-31T10:28:44.664Z,45.33
2019-03-31T10:31:14.627Z,50.43
2019-03-31T10:33:46.107Z,42.93
2019-03-31T10:36:15.114Z,45.53
2019-03-31T10:38:49.952Z,48.77
2019-03-31T10:41:21.833Z,50.27
2019-03-31T10:43:52.045Z,49.53
2019-03-31T10:46:20.993Z,46.20
2019-03-31T10:48:53.049Z,45.73
2019-03-31T10:51:22.833Z,49.90
2019-03-31T10:53:54.120Z,47.03
2019-03-31T10:56:28.018Z,48.23
2019-03-31T10:59:01.224Z,52.07
2019-03-31T11:01:37.451Z,46.40
2019-03-31T11:04:08.983Z,51.30
2019-03-31T11:06:57.977Z,58.17
2019-03-31T11:09:15.529Z,60.57
2019-03-31T11:11:45.452Z,54.33
2019-03-31T11:14:15.976Z,51.33
2019-03-31T11:16:53.867Z,59.53
2019-03-31T11:19:25.663Z,54.93
2019-03-31T11:24:46.779Z,54.27
2019-03-31T11:27:20.258Z,54.03
2019-03-31T11:29:52.550Z,63.77
2019-03-31T11:32:21.854Z,58.70
2019-03-31T11:34:57.382Z,56.47
2019-03-31T11:37:26.953Z,60.17
2019-03-31T11:39:56.079Z,59.03
2019-03-31T11:42:25.250Z,62.40
2019-03-31T11:45:00.413Z,65.13
2019-03-31T11:47:29.400Z,65.47
2019-03-31T11:50:14.868Z,61.13
2019-03-31T11:52:47.791Z,61.97
2019-03-31T11:55:19.746Z,67.77
2019-03-31T11:57:48.719Z,66.70
2019-03-31T12:00:22.297Z,61.67
2019-03-31T12:02:51.292Z,69.23
2019-03-31T12:05:22.076Z,68.90
2019-03-31T12:07:52.501Z,73.53
2019-03-31T12:10:25.898Z,67.67
2019-03-31T12:12:55.150Z,69.07
2019-03-31T12:15:24.092Z,74.53
2019-03-31T12:17:53.267Z,73.63
2019-03-31T12:20:22.786Z,74.33
2019-03-31T12:22:52.149Z,76.87
2019-03-31T12:25:24.823Z,72.23
2019-03-31T12:27:56.303Z,75.90
2019-03-31T12:30:32.811Z,74.80
2019-03-31T12:33:02.327Z,71.23
2019-03-31T12:35:31.833Z,75.03
2019-03-31T12:38:01.765Z,69.27
2019-03-31T12:40:36.215Z,73.90
2019-03-31T12:43:08.402Z,71.77
2019-03-31T12:45:43.716Z,73.50
2019-03-31T12:48:16.929Z,76.63
2019-03-31T12:50:45.964Z,75.50
2019-03-31T12:53:20.975Z,78.07
2019-03-31T12:55:59.882Z,72.17
2019-03-31T12:58:33.646Z,76.57
2019-03-31T13:01:08.943Z,75.33
2019-03-31T13:03:40.878Z,76.50
2019-03-31T13:06:11.008Z,71.63
2019-03-31T13:08:44.267Z,73.03
2019-03-31T13:11:14.971Z,66.77
2019-03-31T13:13:46.977Z,75.00
2019-03-31T13:16:16.158Z,69.47
2019-03-31T13:18:45.528Z,74.77
2019-03-31T13:21:17.663Z,68.00
2019-03-31T13:23:48.568Z,67.83
2019-03-31T13:26:17.873Z,76.67
2019-03-31T13:28:46.852Z,64.47
2019-03-31T13:31:16.184Z,65.27
2019-03-31T13:33:49.082Z,66.23
2019-03-31T13:36:18.900Z,64.00
2019-03-31T13:39:02.901Z,66.07
2019-03-31T13:41:34.168Z,57.43
2019-03-31T13:44:09.991Z,60.13
2019-03-31T13:46:39.260Z,55.17
2019-03-31T13:49:08.494Z,57.60
2019-03-31T13:51:37.659Z,58.07
2019-03-31T13:54:09.719Z,58.10
2019-03-31T13:56:38.789Z,55.57
2019-03-31T13:59:12.042Z,61.37
2019-03-31T14:01:41.099Z,57.00
2019-03-31T14:04:51.450Z,48.67
2019-03-31T14:07:15.747Z,52.53
2019-03-31T14:10:20.844Z,53.60
2019-03-31T14:12:49.889Z,51.50
2019-03-31T14:15:19.913Z,43.37
2019-03-31T14:21:44.464Z,39.90
2019-03-31T14:24:17.535Z,45.80
2019-03-31T14:26:48.883Z,44.27
2019-03-31T14:29:18.564Z,41.33
2019-03-31T14:31:53.589Z,38.83
2019-03-31T14:34:30.063Z,38.50
2019-03-31T14:36:59.217Z,42.23
2019-03-31T14:40:07.274Z,35.33
2019-03-31T14:42:42.360Z,34.33
2019-03-31T14:45:14.301Z,35.57
2019-03-31T14:47:43.439Z,38.20
2019-03-31T14:50:16.483Z,35.07
2019-03-31T14:52:57.830Z,38.30
2019-03-31T14:55:26.836Z,32.70
2019-03-31T15:11:52.794Z,31.47
2019-03-31T15:14:22.134Z,33.93
2019-03-31T15:17:01.485Z,30.63
2019-03-31T15:19:32.135Z,28.80
2019-03-31T15:22:46.311Z,29.63
2019-03-31T15:25:25.042Z,33.23
2019-03-31T15:27:57.028Z,31.30
2019-03-31T15:30:31.984Z,27.77
2019-03-31T15:33:01.278Z,30.27
2019-03-31T15:36:13.485Z,28.17
2019-03-31T15:38:43.505Z,29.67
2019-03-31T15:41:46.140Z,28.10
2019-03-31T15:44:15.215Z,34.93
2019-03-31T15:47:29.164Z,25.20
2019-03-31T15:49:58.226Z,33.57
2019-03-31T15:53:12.574Z,26.70
2019-03-31T15:55:43.872Z,32.83
2019-03-31T15:58:46.547Z,30.57
2019-03-31T16:01:19.418Z,26.73
2019-03-31T16:04:26.086Z,27.87
2019-03-31T16:06:58.041Z,32.43
2019-03-31T16:10:18.189Z,29.00
2019-03-31T16:12:47.631Z,32.27
2019-03-31T16:15:42.872Z,30.53
2019-03-31T16:18:12.141Z,26.77
2019-03-31T16:21:25.287Z,26.00
2019-03-31T16:23:55.355Z,25.77
2019-03-31T16:26:58.368Z,27.33
2019-03-31T16:29:29.655Z,28.60
2019-03-31T16:45:51.456Z,25.50
2019-03-31T16:48:50.255Z,29.17
2019-03-31T16:51:21.083Z,32.90
2019-03-31T16:54:16.968Z,29.50
2019-03-31T16:56:46.068Z,29.17
2019-03-31T16:59:49.208Z,28.23
2019-03-31T17:02:18.110Z,28.23
2019-03-31T17:05:37.346Z,31.13
2019-03-31T17:08:06.451Z,26.37
2019-03-31T17:11:14.977Z,26.43
2019-03-31T17:13:45.464Z,28.97
2019-03-31T17:16:18.935Z,29.53
2019-03-31T17:29:09.321Z,27.17
2019-03-31T17:31:42.971Z,28.40
2019-03-31T17:35:02.341Z,26.17
2019-03-31T17:37:30.328Z,25.27
2019-03-31T17:40:49.268Z,23.70
2019-03-31T17:43:27.268Z,23.40
2019-03-31T17:46:19.984Z,28.20
2019-03-31T17:48:51.459Z,26.77
2019-03-31T17:51:56.504Z,26.43
2019-03-31T17:54:26.989Z,24.60
2019-03-31T17:57:35.527Z,26.83
2019-03-31T18:00:07.166Z,25.53
2019-03-31T18:09:41.770Z,26.00
2019-03-31T18:12:17.228Z,27.77
2019-03-31T18:14:54.420Z,22.67
2019-03-31T18:17:29.986Z,21.77
2019-03-31T18:19:59.116Z,28.17
2019-03-31T18:23:09.981Z,20.83
2019-03-31T18:25:40.617Z,24.47
2019-03-31T18:34:53.183Z,23.77
2019-03-31T18:37:22.360Z,20.53
2019-03-31T18:40:15.029Z,19.77
2019-03-31T18:42:48.663Z,17.83
2019-03-31T18:45:43.862Z,18.60
2019-03-31T18:48:14.535Z,18.23
2019-03-31T18:51:23.535Z,20.63
2019-03-31T18:53:59.868Z,24.00
2019-03-31T18:57:16.465Z,21.77
2019-03-31T18:59:58.556Z,15.97
2019-03-31T19:03:21.504Z,19.60
2019-03-31T19:06:11.981Z,18.73
2019-03-31T19:09:16.291Z,18.27
2019-03-31T19:11:50.040Z,18.67
2019-03-31T19:14:28.795Z,18.43
2019-03-31T19:16:59.374Z,17.43
2019-03-31T19:19:53.638Z,18.87
2019-03-31T19:22:28.272Z,17.40
2019-03-31T19:25:30.193Z,18.93
2019-03-31T19:28:16.036Z,20.87
2019-03-31T19:31:39.540Z,22.83
2019-03-31T19:34:19.423Z,17.70
2019-03-31T19:37:43.045Z,17.47
2019-03-31T19:40:30.215Z,17.03
2019-03-31T19:43:27.962Z,20.23
2019-03-31T19:46:11.845Z,20.03
2019-03-31T19:49:23.358Z,18.57
2019-03-31T19:52:10.153Z,16.27
2019-03-31T19:54:59.283Z,14.33
2019-03-31T19:57:47.417Z,16.37
2019-03-31T20:00:54.067Z,11.97
2019-03-31T20:03:33.262Z,13.33
2019-03-31T20:06:21.218Z,13.63
2019-03-31T20:08:52.143Z,14.80
2019-03-31T20:11:25.379Z,12.27
2019-03-31T20:21:11.218Z,14.23
2019-03-31T20:23:55.777Z,13.13
2019-03-31T20:29:33.847Z,13.93
2019-03-31T20:32:49.234Z,14.87
2019-03-31T20:35:23.324Z,13.30
2019-03-31T20:45:08.008Z,15.20
2019-03-31T20:47:38.423Z,15.90
2019-03-31T20:50:34.282Z,14.90
2019-03-31T20:53:03.215Z,11.97
2019-03-31T21:06:46.535Z,15.40
2019-03-31T21:09:15.659Z,18.20
2019-03-31T21:18:31.691Z,13.93
2019-03-31T21:21:00.727Z,14.07
2019-03-31T21:24:14.335Z,16.00
2019-03-31T21:26:43.669Z,13.97
2019-03-31T21:36:35.017Z,14.53
2019-03-31T21:39:05.305Z,15.67
2019-03-31T21:41:34.432Z,17.30
2019-03-31T21:44:03.467Z,16.47
2019-03-31T21:46:32.699Z,18.47
2019-03-31T21:49:34.715Z,16.27
2019-03-31T21:52:03.845Z,19.30
2019-03-31T21:54:57.245Z,15.97
2019-03-31T21:57:26.231Z,16.20
2019-03-31T22:00:50.613Z,14.10
2019-03-31T22:03:19.902Z,17.57
2019-03-31T22:06:31.924Z,16.40
2019-03-31T22:09:07.283Z,17.03
2019-03-31T22:12:28.805Z,16.47
2019-03-31T22:15:00.722Z,16.57
2019-03-31T22:18:02.714Z,14.90
2019-03-31T22:20:31.915Z,15.87
2019-03-31T22:23:34.305Z,15.50
2019-03-31T22:26:03.237Z,16.53
2019-03-31T22:42:01.236Z,18.63
2019-03-31T22:44:30.143Z,28.10
2019-03-31T22:46:59.148Z,16.43
2019-03-31T22:49:28.270Z,17.87
2019-03-31T22:52:10.820Z,14.30
2019-03-31T22:54:39.731Z,16.47
2019-03-31T22:57:46.200Z,17.37
2019-03-31T23:00:17.131Z,13.60
2019-03-31T23:03:37.312Z,14.27
2019-03-31T23:06:08.864Z,13.73
2019-03-31T23:09:09.334Z,16.53
2019-03-31T23:11:38.267Z,15.23
2019-03-31T23:14:40.359Z,16.37
2019-03-31T23:17:09.312Z,12.67
2019-03-31T23:19:38.471Z,12.77
2019-03-31T23:22:07.429Z,15.27
2019-03-31T23:24:36.367Z,15.73
2019-03-31T23:27:30.500Z,13.23
2019-03-31T23:30:01.981Z,14.27
2019-03-31T23:32:31.031Z,14.67
2019-03-31T23:35:07.426Z,15.13
2019-03-31T23:37:37.828Z,16.97
2019-03-31T23:40:06.975Z,16.47
2019-03-31T23:42:35.876Z,15.27
2019-03-31T23:45:06.201Z,16.33
2019-03-31T23:47:36.558Z,19.03
2019-03-31T23:50:06.497Z,13.60
2019-03-31T23:52:35.701Z,18.10
2019-03-31T23:55:05.396Z,15.47
2019-03-31T23:57:40.631Z,18.80
